Time;durP1;ratioP1;P1;durP2;ratioP2;P2;SDS_P1;SDS_P2;PMS_P1;PMS_P2;Temp;Humidity;BMP_temperature;BMP_pressure;BME280_temperature;BME280_humidity;BME280_pressure;Samples;Min_cycle;Max_cycle;Signal;HPM_P1;HPM_P2
2022/11/09 00:00:34;;;;;;;4.80;3.00;;;;;;;9.00;100.00;100401.75;4936893;28;20236;-70
2022/11/09 00:03:00;;;;;;;4.27;3.30;;;;;;;8.97;100.00;100401.84;4940259;28;20414;-70
2022/11/09 00:05:29;;;;;;;5.17;2.80;;;;;;;8.96;100.00;100404.47;4936412;28;20199;-70
2022/11/09 00:07:55;;;;;;;4.03;2.77;;;;;;;8.92;100.00;100398.50;4939587;28;20548;-70
2022/11/09 00:10:22;;;;;;;7.50;3.40;;;;;;;8.92;100.00;100393.31;4939144;28;20695;-71
2022/11/09 00:12:49;;;;;;;6.03;3.00;;;;;;;8.91;100.00;100387.22;4946952;28;20216;-69
2022/11/09 00:15:16;;;;;;;6.00;3.47;;;;;;;8.89;100.00;100399.41;4938352;28;20221;-70
2022/11/09 00:17:42;;;;;;;3.97;3.17;;;;;;;8.90;100.00;100395.09;4939102;28;20572;-70
2022/11/09 00:20:10;;;;;;;4.87;2.90;;;;;;;8.89;100.00;100396.81;4944617;28;20219;-71
2022/11/09 00:22:36;;;;;;;4.13;2.97;;;;;;;8.89;100.00;100394.22;4942777;28;20205;-70
2022/11/09 00:25:02;;;;;;;3.90;2.70;;;;;;;8.87;100.00;100387.34;4944984;28;20204;-70
2022/11/09 00:27:29;;;;;;;4.60;3.60;;;;;;;8.86;100.00;100394.28;4939957;28;20210;-68
2022/11/09 00:29:57;;;;;;;4.43;3.50;;;;;;;8.85;100.00;100396.94;4941295;28;20676;-70
2022/11/09 00:32:24;;;;;;;3.83;3.27;;;;;;;8.84;100.00;100393.44;4947329;28;20431;-69
2022/11/09 00:34:50;;;;;;;6.87;3.60;;;;;;;8.87;100.00;100400.34;4944522;28;20218;-70
2022/11/09 00:37:17;;;;;;;4.00;3.03;;;;;;;8.87;100.00;100396.00;4938795;28;20195;-70
2022/11/09 00:39:43;;;;;;;5.00;3.63;;;;;;;8.84;100.00;100401.25;4958250;28;20202;-71
2022/11/09 00:42:10;;;;;;;4.43;3.37;;;;;;;8.83;100.00;100398.69;4937322;28;20590;-70
2022/11/09 00:44:36;;;;;;;5.30;3.57;;;;;;;8.80;100.00;100397.03;4935464;28;20199;-69
2022/11/09 00:47:04;;;;;;;7.97;4.17;;;;;;;8.79;100.00;100397.91;4938259;28;20245;-70
2022/11/09 00:49:30;;;;;;;4.83;3.70;;;;;;;8.75;100.00;100400.63;4936502;28;20544;-69
2022/11/09 00:51:57;;;;;;;5.00;3.40;;;;;;;8.73;100.00;100405.84;4944581;28;20243;-69
2022/11/09 00:54:23;;;;;;;6.33;3.87;;;;;;;8.70;100.00;100409.34;4941800;28;20695;-70
2022/11/09 00:56:49;;;;;;;5.93;3.30;;;;;;;8.66;100.00;100404.28;4940807;28;20285;-70
2022/11/09 00:59:16;;;;;;;4.70;3.90;;;;;;;8.65;100.00;100411.22;4941060;28;20714;-70
2022/11/09 01:01:42;;;;;;;5.70;3.73;;;;;;;8.64;100.00;100406.91;4946674;23;20605;-73
2022/11/09 01:04:10;;;;;;;5.57;3.97;;;;;;;8.60;100.00;100402.69;4922900;29;20660;-73
2022/11/09 01:06:36;;;;;;;5.70;3.90;;;;;;;8.58;100.00;100398.38;4925569;29;20222;-72
2022/11/09 01:09:03;;;;;;;7.27;3.80;;;;;;;8.58;100.00;100398.38;4922046;29;20835;-75
2022/11/09 01:11:29;;;;;;;5.00;3.80;;;;;;;8.60;100.00;100396.59;4921865;29;20500;-75
2022/11/09 01:13:59;;;;;;;5.23;3.90;;;;;;;8.56;100.00;100390.63;4901133;29;20208;-75
2022/11/09 01:16:26;;;;;;;6.00;3.97;;;;;;;8.58;100.00;100393.19;4906145;29;20625;-75
2022/11/09 01:18:54;;;;;;;5.53;3.70;;;;;;;8.58;100.00;100395.78;4905587;29;20200;-75
2022/11/09 01:21:21;;;;;;;5.87;4.50;;;;;;;8.59;100.00;100389.72;4919717;29;20328;-75
2022/11/09 01:23:48;;;;;;;6.50;4.70;;;;;;;8.60;100.00;100394.00;4908508;29;20203;-75
2022/11/09 01:26:15;;;;;;;6.07;4.37;;;;;;;8.59;100.00;100394.91;4906151;29;20704;-75
2022/11/09 01:28:43;;;;;;;5.73;4.00;;;;;;;8.61;100.00;100408.72;4905166;29;20200;-75
2022/11/09 01:31:12;;;;;;;6.97;4.60;;;;;;;8.61;100.00;100400.91;4908428;29;20238;-75
2022/11/09 01:33:39;;;;;;;8.47;5.60;;;;;;;8.60;100.00;100394.88;4919755;29;20200;-75
2022/11/09 01:36:07;;;;;;;7.03;4.53;;;;;;;8.58;100.00;100404.44;4897264;29;20641;-75
2022/11/09 01:38:36;;;;;;;6.40;4.30;;;;;;;8.57;100.00;100399.28;4909891;29;20227;-74
2022/11/09 01:41:02;;;;;;;6.60;4.47;;;;;;;8.58;100.00;100398.38;4908399;29;20227;-75
2022/11/09 01:43:29;;;;;;;6.57;4.60;;;;;;;8.59;100.00;100397.50;4921835;29;20212;-74
2022/11/09 01:45:59;;;;;;;7.03;4.57;;;;;;;8.58;100.00;100391.44;4909521;29;20212;-75
2022/11/09 01:48:34;;;;;;;5.97;4.50;;;;;;;8.55;100.00;100395.84;4912235;29;20287;-74
2022/11/09 01:51:05;;;;;;;7.03;4.80;;;;;;;8.53;100.00;100396.75;4913969;29;20775;-74
2022/11/09 01:53:39;;;;;;;7.90;5.00;;;;;;;8.51;100.00;100401.13;4910638;29;20204;-74
2022/11/09 01:56:09;;;;;;;6.17;4.57;;;;;;;8.50;100.00;100398.56;4911991;29;20228;-74
2022/11/09 01:58:41;;;;;;;7.17;4.60;;;;;;;8.48;100.00;100398.59;4910987;29;20208;-74
2022/11/09 02:01:10;;;;;;;7.70;5.10;;;;;;;8.47;100.00;100388.22;4910404;29;20225;-74
2022/11/09 02:03:42;;;;;;;6.53;4.83;;;;;;;8.42;100.00;100388.31;4908754;29;20214;-74
2022/11/09 02:06:12;;;;;;;8.70;4.90;;;;;;;8.40;100.00;100394.41;4902086;29;20231;-74
2022/11/09 02:08:41;;;;;;;11.67;5.70;;;;;;;8.39;100.00;100392.69;4910668;29;20207;-74
2022/11/09 02:11:12;;;;;;;8.70;5.23;;;;;;;8.36;100.00;100393.63;4911891;29;20250;-74
2022/11/09 02:13:44;;;;;;;7.37;5.47;;;;;;;8.32;100.00;100390.22;4924361;29;20593;-74
2022/11/09 02:16:13;;;;;;;7.83;5.30;;;;;;;8.29;100.00;100387.69;4905680;29;20223;-74
2022/11/09 02:18:44;;;;;;;7.00;5.47;;;;;;;8.27;100.00;100386.00;4907167;29;20603;-74
2022/11/09 02:21:12;;;;;;;11.70;5.80;;;;;;;8.24;100.00;100384.31;4922660;29;20760;-74
2022/11/09 02:23:39;;;;;;;8.97;5.33;;;;;;;8.23;100.00;100381.75;4907204;29;20203;-74
2022/11/09 02:26:10;;;;;;;7.90;5.87;;;;;;;8.23;100.00;100376.56;4904166;29;20200;-75
2022/11/09 02:28:39;;;;;;;7.63;5.77;;;;;;;8.25;100.00;100366.97;4908865;29;20568;-74
2022/11/09 02:31:10;;;;;;;8.43;5.93;;;;;;;8.24;100.00;100370.50;4902905;29;20242;-74
2022/11/09 02:33:45;;;;;;;7.97;5.73;;;;;;;8.25;100.00;100369.56;4904864;29;20211;-74
2022/11/09 02:36:12;;;;;;;6.77;5.40;;;;;;;8.23;100.00;100368.75;4905973;29;20220;-74
2022/11/09 02:38:39;;;;;;;9.43;6.37;;;;;;;8.20;100.00;100367.09;4905272;29;20748;-74
2022/11/09 02:41:06;;;;;;;8.43;6.50;;;;;;;8.21;100.00;100371.38;4921604;29;20746;-75
2022/11/09 02:43:32;;;;;;;7.37;5.40;;;;;;;8.23;100.00;100376.56;4905563;29;20700;-74
2022/11/09 02:45:59;;;;;;;8.73;5.87;;;;;;;8.21;100.00;100368.78;4920264;29;20742;-74
2022/11/09 02:48:26;;;;;;;9.27;5.97;;;;;;;8.21;100.00;100365.34;4902241;29;20223;-74
2022/11/09 02:50:52;;;;;;;9.80;6.63;;;;;;;8.20;100.00;100368.84;4906782;29;20731;-74
2022/11/09 02:53:21;;;;;;;8.80;6.00;;;;;;;8.19;100.00;100377.50;4908882;29;20711;-74
2022/11/09 02:55:47;;;;;;;6.70;5.07;;;;;;;8.20;100.00;100374.88;4921875;29;20211;-74
2022/11/09 02:58:14;;;;;;;9.13;6.30;;;;;;;8.21;100.00;100367.94;4908559;29;20207;-74
2022/11/09 03:00:40;;;;;;;9.00;6.60;;;;;;;8.25;100.00;100378.25;4905981;29;20222;-74
2022/11/09 03:03:07;;;;;;;10.00;6.53;;;;;;;8.24;100.00;100371.31;4904693;29;20213;-74
2022/11/09 03:05:33;;;;;;;10.83;6.47;;;;;;;8.28;100.00;100378.16;4904716;29;20231;-74
2022/11/09 03:08:01;;;;;;;11.57;6.40;;;;;;;8.30;100.00;100372.94;4908371;29;20286;-74
2022/11/09 03:10:30;;;;;;;9.83;6.47;;;;;;;8.29;100.00;100372.09;4907306;29;20207;-74
2022/11/09 03:12:56;;;;;;;9.77;6.23;;;;;;;8.28;100.00;100374.72;4906575;29;20211;-74
2022/11/09 03:15:23;;;;;;;7.93;6.07;;;;;;;8.23;100.00;100373.94;4904185;29;20263;-74
2022/11/09 03:17:49;;;;;;;9.53;6.40;;;;;;;8.18;100.00;100374.06;4909894;29;20231;-74
2022/11/09 03:20:18;;;;;;;9.53;5.77;;;;;;;8.18;100.00;100379.25;4905949;29;20204;-74
2022/11/09 03:22:44;;;;;;;8.37;6.03;;;;;;;8.15;100.00;100374.13;4906909;29;20283;-74
2022/11/09 03:25:12;;;;;;;10.73;7.00;;;;;;;8.16;100.00;100378.41;4901968;29;20200;-74
2022/11/09 03:27:40;;;;;;;8.10;5.60;;;;;;;8.17;100.00;100376.69;4903457;29;20429;-74
2022/11/09 03:30:09;;;;;;;10.47;6.43;;;;;;;8.18;100.00;100379.25;4905116;29;20207;-74
2022/11/09 03:32:35;;;;;;;8.90;6.37;;;;;;;8.22;100.00;100380.91;4921523;29;20277;-74
2022/11/09 03:35:02;;;;;;;9.53;6.07;;;;;;;8.28;100.00;100375.56;4904377;29;20270;-74
2022/11/09 03:37:28;;;;;;;9.37;6.17;;;;;;;8.33;100.00;100376.31;4904016;29;20230;-74
2022/11/09 03:39:54;;;;;;;8.20;5.77;;;;;;;8.36;100.00;100367.63;4907007;29;20604;-74
2022/11/09 03:42:21;;;;;;;6.97;5.27;;;;;;;8.45;100.00;100369.22;4905942;29;20233;-74
2022/11/09 03:44:50;;;;;;;10.67;6.10;;;;;;;8.49;100.00;100370.84;4904456;29;20208;-74
2022/11/09 03:47:16;;;;;;;9.50;5.93;;;;;;;8.55;100.00;100380.25;4904396;29;20211;-74
2022/11/09 03:49:42;;;;;;;8.20;5.90;;;;;;;8.56;100.00;100387.16;4907743;29;20263;-74
2022/11/09 03:52:09;;;;;;;7.63;5.57;;;;;;;8.56;100.00;100394.97;4906174;29;20235;-74
2022/11/09 03:54:35;;;;;;;8.30;5.87;;;;;;;8.58;100.00;100387.97;4904270;29;20204;-74
2022/11/09 03:57:01;;;;;;;7.87;4.70;;;;;;;8.57;100.00;100392.34;4907121;29;20232;-74
2022/11/09 03:59:28;;;;;;;8.90;5.50;;;;;;;8.54;100.00;100387.19;4907685;29;20200;-74
2022/11/09 04:01:55;;;;;;;8.07;5.43;;;;;;;8.55;100.00;100378.53;4901195;29;20243;-74
2022/11/09 04:04:22;;;;;;;8.10;5.57;;;;;;;8.53;100.00;100381.16;4905286;29;20231;-74
2022/11/09 04:06:48;;;;;;;7.17;5.27;;;;;;;8.52;100.00;100375.97;4905178;29;20192;-74
2022/11/09 04:09:14;;;;;;;7.40;5.33;;;;;;;8.47;100.00;100377.81;4905272;29;20229;-74
2022/11/09 04:11:41;;;;;;;8.00;5.50;;;;;;;8.41;100.00;100377.91;4900583;29;20231;-74
2022/11/09 04:14:07;;;;;;;7.80;5.60;;;;;;;8.36;100.00;100375.44;4904200;29;20676;-74
2022/11/09 04:16:33;;;;;;;9.30;6.17;;;;;;;8.32;100.00;100372.03;4906599;29;20219;-74
2022/11/09 04:19:02;;;;;;;7.43;5.50;;;;;;;8.30;100.00;100365.16;4906337;29;20208;-74
2022/11/09 04:21:28;;;;;;;7.47;4.70;;;;;;;8.27;100.00;100365.22;4906692;29;20220;-74
2022/11/09 04:23:55;;;;;;;8.03;5.83;;;;;;;8.25;100.00;100356.59;4903279;29;20556;-74
2022/11/09 04:26:21;;;;;;;8.60;5.70;;;;;;;8.22;100.00;100359.28;4903790;29;20195;-74
2022/11/09 04:28:47;;;;;;;8.43;5.53;;;;;;;8.21;100.00;100363.59;4905809;29;20208;-74
2022/11/09 04:31:14;;;;;;;6.53;5.13;;;;;;;8.21;100.00;100363.59;4905819;29;20228;-75
2022/11/09 04:33:40;;;;;;;8.80;5.67;;;;;;;8.21;100.00;100352.34;4904916;29;20203;-74
2022/11/09 04:36:09;;;;;;;9.10;6.10;;;;;;;8.26;100.00;100347.94;4903855;29;20243;-74
2022/11/09 04:38:36;;;;;;;8.97;5.67;;;;;;;8.29;100.00;100350.47;4904512;29;20216;-74
2022/11/09 04:41:04;;;;;;;7.77;5.43;;;;;;;8.34;100.00;100354.66;4904429;29;20302;-74
2022/11/09 04:43:30;;;;;;;7.77;5.40;;;;;;;8.37;100.00;100358.09;4903955;29;20207;-74
2022/11/09 04:45:59;;;;;;;9.27;6.53;;;;;;;8.43;100.00;100365.78;4902063;29;20208;-74
2022/11/09 04:48:26;;;;;;;7.43;5.23;;;;;;;8.49;100.00;100365.66;4902806;29;20549;-74
2022/11/09 04:50:52;;;;;;;12.17;5.67;;;;;;;8.52;100.00;100363.84;4901727;29;20235;-74
2022/11/09 04:53:20;;;;;;;9.20;5.67;;;;;;;8.56;100.00;100376.78;4905997;29;20200;-74
2022/11/09 04:55:46;;;;;;;9.17;5.67;;;;;;;8.58;100.00;100375.84;4905111;29;20356;-75
2022/11/09 04:58:12;;;;;;;9.57;6.00;;;;;;;8.63;100.00;100378.34;4905251;29;20220;-74
2022/11/09 05:00:39;;;;;;;8.67;5.47;;;;;;;8.65;100.00;100374.84;4904735;29;20242;-74
2022/11/09 05:03:06;;;;;;;8.67;5.30;;;;;;;8.67;100.00;100364.38;4901543;29;20742;-74
2022/11/09 05:05:33;;;;;;;7.97;5.63;;;;;;;8.68;100.00;100379.94;4907507;29;20304;-74
2022/11/09 05:08:00;;;;;;;8.10;4.87;;;;;;;8.70;100.00;100372.13;4905567;29;20196;-74
2022/11/09 05:10:31;;;;;;;8.63;5.43;;;;;;;8.75;100.00;100385.88;4904359;29;20714;-74
2022/11/09 05:12:57;;;;;;;7.77;4.97;;;;;;;8.76;100.00;100384.13;4906135;29;20207;-74
2022/11/09 05:15:24;;;;;;;8.30;5.20;;;;;;;8.77;100.00;100385.84;4905407;29;20259;-74
2022/11/09 05:17:50;;;;;;;7.60;5.30;;;;;;;8.79;100.00;100382.31;4906467;29;20386;-74
2022/11/09 05:20:17;;;;;;;7.70;5.17;;;;;;;8.83;100.00;100373.56;4910940;29;20927;-74
2022/11/09 05:25:28;;;;;;;10.27;5.93;;;;;;;8.89;100.00;100386.41;4908687;29;20208;-74
2022/11/09 05:27:55;;;;;;;7.27;5.50;;;;;;;8.92;100.00;100385.50;4909147;29;20211;-74
2022/11/09 05:30:22;;;;;;;7.47;5.10;;;;;;;8.94;100.00;100382.88;4906067;29;20212;-73
2022/11/09 05:32:49;;;;;;;8.47;5.50;;;;;;;8.93;100.00;100383.75;4909552;29;20281;-74
2022/11/09 05:35:15;;;;;;;8.13;5.33;;;;;;;8.93;100.00;100388.94;4906853;29;20200;-74
2022/11/09 05:37:42;;;;;;;8.67;5.50;;;;;;;8.94;100.00;100388.06;4907645;29;20205;-74
2022/11/09 05:40:09;;;;;;;7.73;5.43;;;;;;;8.95;100.00;100400.16;4909770;29;20215;-74
2022/11/09 05:42:38;;;;;;;9.70;5.90;;;;;;;8.94;100.00;100381.13;4907888;29;20224;-74
2022/11/09 05:45:07;;;;;;;7.70;4.97;;;;;;;8.94;100.00;100378.50;4899953;29;20211;-74
2022/11/09 05:47:37;;;;;;;7.67;5.80;;;;;;;8.94;100.00;100385.47;4902557;29;20603;-74
2022/11/09 05:50:04;;;;;;;9.50;5.33;;;;;;;8.95;100.00;100389.75;4908087;29;20212;-74
2022/11/09 05:52:30;;;;;;;8.77;5.80;;;;;;;8.96;100.00;100391.47;4913078;29;20629;-74
2022/11/09 05:54:56;;;;;;;8.03;5.10;;;;;;;8.98;100.00;100381.91;4904754;29;20433;-74
2022/11/09 05:57:23;;;;;;;7.53;5.30;;;;;;;8.98;100.00;100381.91;4906925;29;20217;-74
2022/11/09 05:59:49;;;;;;;7.50;4.90;;;;;;;8.98;100.00;100381.91;4909076;29;20213;-74
2022/11/09 06:02:17;;;;;;;8.97;5.70;;;;;;;8.96;100.00;100399.28;4911001;29;20728;-74
2022/11/09 06:04:43;;;;;;;11.20;5.60;;;;;;;8.97;100.00;100398.38;4908753;29;20783;-74
2022/11/09 06:07:09;;;;;;;8.87;5.33;;;;;;;8.99;100.00;100399.19;4901121;29;20570;-74
2022/11/09 06:09:36;;;;;;;9.50;5.30;;;;;;;9.00;100.00;100411.31;4906357;29;20262;-74
2022/11/09 06:12:02;;;;;;;8.27;5.37;;;;;;;8.99;100.00;100407.00;4905327;29;20472;-74
2022/11/09 06:14:28;;;;;;;8.00;5.43;;;;;;;8.99;100.00;100404.38;4904844;29;20215;-74
2022/11/09 06:16:55;;;;;;;9.17;5.33;;;;;;;9.00;100.00;100406.13;4906282;29;20584;-74
2022/11/09 06:19:22;;;;;;;8.07;5.37;;;;;;;9.00;100.00;100404.34;4910617;29;20205;-74
2022/11/09 06:21:49;;;;;;;8.60;5.57;;;;;;;9.01;100.00;100400.88;4909641;29;20573;-74
2022/11/09 06:24:15;;;;;;;7.17;5.37;;;;;;;9.01;100.00;100408.69;4899084;29;20202;-74
2022/11/09 06:26:41;;;;;;;8.57;5.33;;;;;;;9.04;100.00;100419.03;4905293;29;20200;-74
2022/11/09 06:29:08;;;;;;;8.03;5.60;;;;;;;9.05;100.00;100409.47;4906693;29;20209;-74
2022/11/09 06:31:35;;;;;;;7.77;5.23;;;;;;;9.06;100.00;100406.00;4905180;29;20244;-74
2022/11/09 06:34:02;;;;;;;7.80;5.30;;;;;;;9.08;100.00;100410.25;4902635;29;20238;-74
2022/11/09 06:36:29;;;;;;;8.47;5.77;;;;;;;9.11;100.00;100414.50;4905571;29;20219;-75
2022/11/09 06:38:56;;;;;;;7.03;5.30;;;;;;;9.10;100.00;100411.06;4905373;29;20453;-74
2022/11/09 06:41:22;;;;;;;7.43;5.40;;;;;;;9.12;100.00;100415.38;4904126;29;20765;-74
2022/11/09 06:43:48;;;;;;;9.33;5.13;;;;;;;9.15;100.00;100410.13;4906057;29;20334;-74
2022/11/09 06:46:16;;;;;;;7.37;5.40;;;;;;;9.17;100.00;100409.19;4904194;29;20216;-74
2022/11/09 06:48:43;;;;;;;7.27;4.97;;;;;;;9.19;100.00;100417.78;4901499;29;20213;-74
2022/11/09 06:51:10;;;;;;;7.53;4.93;;;;;;;9.20;100.00;100418.63;4899336;29;20229;-74
2022/11/09 06:53:40;;;;;;;8.07;5.53;;;;;;;9.21;100.00;100420.38;4902955;29;20207;-74
2022/11/09 06:56:07;;;;;;;8.90;5.17;;;;;;;9.23;100.00;100424.66;4904209;29;20209;-74
2022/11/09 06:58:34;;;;;;;8.23;5.33;;;;;;;9.26;100.00;100434.13;4905956;29;20229;-74
2022/11/09 07:01:05;;;;;;;8.80;5.50;;;;;;;9.25;100.00;100433.28;4921854;23;20237;-68
2022/11/09 07:03:32;;;;;;;9.60;5.83;;;;;;;9.27;100.00;100431.47;4885126;29;20207;-71
2022/11/09 07:05:58;;;;;;;8.77;5.20;;;;;;;9.29;100.00;100434.91;4882943;29;20221;-70
2022/11/09 07:08:24;;;;;;;11.67;5.47;;;;;;;9.32;100.00;100438.31;4883367;29;20205;-70
2022/11/09 07:10:52;;;;;;;7.60;5.53;;;;;;;9.35;100.00;100440.84;4883981;29;20246;-71
2022/11/09 07:13:18;;;;;;;9.63;5.47;;;;;;;9.37;100.00;100439.91;4886130;29;20206;-72
2022/11/09 07:15:45;;;;;;;9.30;5.67;;;;;;;9.43;100.00;100446.75;4881066;29;20222;-70
2022/11/09 07:18:12;;;;;;;9.30;5.30;;;;;;;9.44;100.00;100449.28;4886787;29;20709;-71
2022/11/09 07:20:38;;;;;;;10.40;5.50;;;;;;;9.45;100.00;100448.41;4885647;29;21560;-71
2022/11/09 07:23:04;;;;;;;8.20;5.00;;;;;;;9.47;100.00;100449.22;4867743;29;20227;-70
2022/11/09 07:25:31;;;;;;;7.53;5.17;;;;;;;9.51;100.00;100441.34;4884452;29;20771;-71
2022/11/09 07:28:03;;;;;;;8.10;5.50;;;;;;;9.54;100.00;100442.09;4888994;29;20302;-70
2022/11/09 07:30:30;;;;;;;8.57;5.63;;;;;;;9.58;100.00;100446.34;4888679;29;20304;-70
2022/11/09 07:32:58;;;;;;;8.20;5.10;;;;;;;9.60;100.00;100439.38;4884981;29;20218;-70
2022/11/09 07:35:25;;;;;;;7.97;5.00;;;;;;;9.64;100.00;100448.81;4883934;29;20217;-71
2022/11/09 07:37:51;;;;;;;7.60;5.13;;;;;;;9.66;100.00;100444.41;4883932;29;20230;-71
2022/11/09 07:40:18;;;;;;;8.83;5.40;;;;;;;9.70;100.00;100444.34;4890823;29;20206;-71
2022/11/09 07:42:44;;;;;;;8.97;5.37;;;;;;;9.73;100.00;100444.28;4892606;29;20234;-70
2022/11/09 07:45:12;;;;;;;10.27;5.60;;;;;;;9.76;100.00;100438.97;4885846;29;20471;-71
2022/11/09 07:47:38;;;;;;;10.00;5.70;;;;;;;9.79;100.00;100444.94;4886128;29;20226;-71
2022/11/09 07:50:06;;;;;;;12.30;6.20;;;;;;;9.81;100.00;100445.75;4885756;29;20311;-70
2022/11/09 07:52:32;;;;;;;11.00;6.17;;;;;;;9.82;100.00;100452.69;4886566;29;20232;-71
2022/11/09 07:54:58;;;;;;;10.27;5.80;;;;;;;9.82;100.00;100463.09;4884567;29;20629;-71
2022/11/09 07:57:25;;;;;;;8.70;5.60;;;;;;;9.88;100.00;100463.84;4881075;29;20234;-71
2022/11/09 07:59:52;;;;;;;8.63;5.97;;;;;;;9.90;100.00;100462.03;4875515;29;20688;-71
2022/11/09 08:02:20;;;;;;;7.97;5.43;;;;;;;9.88;100.00;100456.88;4886226;29;20226;-71
2022/11/09 08:04:46;;;;;;;9.70;6.23;;;;;;;9.90;100.00;100454.22;4875738;29;20657;-71
2022/11/09 08:07:12;;;;;;;9.67;6.00;;;;;;;9.93;100.00;100464.56;4868589;29;20204;-71
2022/11/09 08:09:39;;;;;;;8.63;5.60;;;;;;;9.94;100.00;100458.47;4886825;29;20658;-71
2022/11/09 08:12:05;;;;;;;10.13;5.77;;;;;;;9.97;100.00;100446.22;4885009;29;20231;-72
2022/11/09 08:14:32;;;;;;;9.53;6.10;;;;;;;10.03;100.00;100453.88;4886794;29;20204;-71
2022/11/09 08:16:59;;;;;;;8.57;5.37;;;;;;;10.07;100.00;100459.84;4886907;29;20215;-71
2022/11/09 08:19:26;;;;;;;10.50;5.77;;;;;;;10.09;100.00;100467.63;4887348;29;20228;-71
2022/11/09 08:21:56;;;;;;;9.10;6.10;;;;;;;10.09;100.00;100470.22;4889346;29;20235;-72
2022/11/09 08:24:22;;;;;;;9.43;5.83;;;;;;;10.10;100.00;100469.34;4887018;29;20289;-70
2022/11/09 08:26:49;;;;;;;9.73;6.07;;;;;;;10.08;100.00;100466.78;4884611;29;20680;-70
2022/11/09 08:29:15;;;;;;;8.53;5.50;;;;;;;10.09;100.00;100478.06;4884958;29;20213;-72
2022/11/09 08:31:41;;;;;;;10.80;6.17;;;;;;;10.07;100.00;100472.88;4888474;29;20256;-71
2022/11/09 08:34:10;;;;;;;9.07;6.07;;;;;;;10.09;100.00;100475.44;4882159;29;20208;-71
2022/11/09 08:36:38;;;;;;;9.83;5.57;;;;;;;10.09;100.00;100465.88;4881031;29;20203;-71
2022/11/09 08:39:04;;;;;;;10.17;6.00;;;;;;;10.13;100.00;100477.06;4890951;29;20227;-70
2022/11/09 08:41:32;;;;;;;8.70;5.43;;;;;;;10.16;100.00;100483.03;4889252;29;20224;-71
2022/11/09 08:43:59;;;;;;;9.30;5.90;;;;;;;10.21;100.00;100490.75;4884178;29;20212;-72
2022/11/09 08:46:25;;;;;;;9.73;6.30;;;;;;;10.28;100.00;100496.66;4886888;29;20216;-71
2022/11/09 08:48:51;;;;;;;10.50;5.37;;;;;;;10.30;100.00;100494.84;4887102;29;20208;-71
2022/11/09 08:51:18;;;;;;;11.80;6.43;;;;;;;10.33;100.00;100500.03;4882298;29;20235;-71
2022/11/09 08:53:45;;;;;;;9.83;6.40;;;;;;;10.31;100.00;100496.59;4882113;29;20299;-70
2022/11/09 08:56:12;;;;;;;9.97;5.73;;;;;;;10.30;100.00;100500.06;4881231;29;20214;-71
2022/11/09 08:58:39;;;;;;;7.30;5.17;;;;;;;10.30;100.00;100492.25;4888320;29;20653;-71
2022/11/09 09:01:07;;;;;;;11.67;6.30;;;;;;;10.28;100.00;100497.50;4895104;29;20207;-71
2022/11/09 09:03:33;;;;;;;10.90;5.80;;;;;;;10.27;100.00;100505.34;4887358;29;20218;-72
2022/11/09 09:06:03;;;;;;;9.17;5.80;;;;;;;10.26;100.00;100504.50;4891125;29;20212;-71
2022/11/09 09:08:29;;;;;;;9.13;6.10;;;;;;;10.28;100.00;100507.94;4888624;29;20200;-71
2022/11/09 09:10:57;;;;;;;13.53;7.97;;;;;;;10.27;100.00;100518.38;4890022;29;20196;-71
2022/11/09 09:13:23;;;;;;;11.17;7.10;;;;;;;10.29;100.00;100525.28;4887289;29;20208;-71
2022/11/09 09:15:50;;;;;;;9.47;6.60;;;;;;;10.31;100.00;100525.25;4890030;29;20984;-70
2022/11/09 09:18:16;;;;;;;10.63;6.50;;;;;;;10.32;100.00;100532.19;4888600;29;20228;-71
2022/11/09 09:20:43;;;;;;;11.87;6.40;;;;;;;10.31;100.00;100520.91;4888221;29;20200;-70
2022/11/09 09:23:11;;;;;;;9.93;6.50;;;;;;;10.33;100.00;100526.94;4890764;29;20235;-71
2022/11/09 09:25:37;;;;;;;11.80;6.20;;;;;;;10.32;100.00;100522.59;4887478;29;20211;-71
2022/11/09 09:28:05;;;;;;;9.13;6.53;;;;;;;10.34;100.00;100520.84;4889679;29;20406;-70
2022/11/09 09:30:32;;;;;;;11.37;6.30;;;;;;;10.36;100.00;100523.38;4889195;29;20205;-71
2022/11/09 09:32:59;;;;;;;9.93;6.47;;;;;;;10.36;100.00;100511.22;4892214;29;20231;-71
2022/11/09 09:35:25;;;;;;;10.63;6.70;;;;;;;10.39;100.00;100513.72;4884817;29;20216;-72
2022/11/09 09:37:52;;;;;;;10.63;6.23;;;;;;;10.38;100.00;100524.22;4887943;29;20696;-71
2022/11/09 09:40:25;;;;;;;11.57;6.27;;;;;;;10.37;100.00;100520.72;4884003;29;20708;-70
2022/11/09 09:42:54;;;;;;;9.83;6.47;;;;;;;10.36;100.00;100515.56;4886093;29;20228;-71
2022/11/09 09:45:25;;;;;;;11.90;6.57;;;;;;;10.32;100.00;100516.56;4884023;29;20292;-72
2022/11/09 09:47:58;;;;;;;11.40;7.37;;;;;;;10.32;100.00;100516.56;4886594;29;20204;-71
2022/11/09 09:50:29;;;;;;;10.83;7.37;;;;;;;10.33;100.00;100508.69;4883344;29;20688;-71
2022/11/09 09:53:00;;;;;;;10.13;6.03;;;;;;;10.32;100.00;100504.38;4891343;29;20232;-71
2022/11/09 09:55:34;;;;;;;11.87;6.73;;;;;;;10.27;100.00;100500.16;4885802;29;20213;-71
2022/11/09 09:58:06;;;;;;;12.23;6.67;;;;;;;10.22;100.00;100511.56;4887231;29;20718;-71
2022/11/09 10:00:37;;;;;;;14.80;7.17;;;;;;;10.20;100.00;100491.63;4886226;29;20205;-72
2022/11/09 10:03:04;;;;;;;12.90;7.27;;;;;;;10.18;100.00;100503.84;4886704;29;20246;-71
2022/11/09 10:05:42;;;;;;;11.40;6.87;;;;;;;10.16;100.00;100503.88;4890216;29;20208;-71
2022/11/09 10:08:13;;;;;;;12.60;7.20;;;;;;;10.14;100.00;100503.06;4885184;29;20415;-70
2022/11/09 10:10:45;;;;;;;12.60;6.90;;;;;;;10.11;100.00;100507.50;4889309;29;20216;-71
2022/11/09 10:13:38;;;;;;;12.77;7.40;;;;;;;10.08;100.00;100512.78;4890787;29;20220;-71
2022/11/09 10:16:13;;;;;;;12.83;7.10;;;;;;;10.01;100.00;100517.34;4891975;29;20688;-70
2022/11/09 10:19:03;;;;;;;13.60;7.17;;;;;;;10.01;100.00;100509.53;4891191;29;20227;-71
2022/11/09 10:21:39;;;;;;;10.97;7.00;;;;;;;9.94;100.00;100513.19;4886631;29;20228;-71
2022/11/09 10:24:14;;;;;;;13.60;7.20;;;;;;;9.91;100.00;100513.25;4889050;29;20630;-71
2022/11/09 10:26:44;;;;;;;11.53;7.20;;;;;;;9.88;100.00;100516.75;4876335;29;20214;-69
2022/11/09 10:29:22;;;;;;;12.87;6.87;;;;;;;9.87;100.00;100507.25;4888242;29;20203;-70
2022/11/09 10:31:52;;;;;;;15.23;8.60;;;;;;;9.90;100.00;100506.31;4884685;29;20330;-70
2022/11/09 10:34:20;;;;;;;19.60;10.57;;;;;;;9.92;100.00;100499.31;4887982;29;20219;-71
2022/11/09 10:36:54;;;;;;;15.27;9.13;;;;;;;9.88;100.00;100500.28;4892756;29;20563;-71
2022/11/09 10:39:24;;;;;;;17.10;10.07;;;;;;;9.84;100.00;100505.56;4889987;29;20227;-71
2022/11/09 10:42:10;;;;;;;20.40;11.00;;;;;;;9.86;100.00;100502.94;4888886;29;20233;-72
2022/11/09 10:44:55;;;;;;;19.73;12.47;;;;;;;9.86;100.00;100505.53;4890354;29;21069;-71
2022/11/09 10:47:52;;;;;;;31.27;11.80;;;;;;;9.93;100.00;100507.09;4886851;29;20634;-71
2022/11/09 10:50:39;;;;;;;27.00;10.70;;;;;;;9.98;100.00;100507.84;4891631;29;20215;-70
2022/11/09 10:53:25;;;;;;;21.60;11.47;;;;;;;10.05;100.00;100504.16;4884839;29;20274;-70
2022/11/09 10:56:14;;;;;;;20.60;11.43;;;;;;;10.16;100.00;100495.22;4885956;29;20785;-71
2022/11/09 10:58:59;;;;;;;16.17;9.97;;;;;;;10.22;100.00;100487.25;4889135;29;20231;-71
2022/11/09 11:01:44;;;;;;;24.40;12.10;;;;;;;10.26;100.00;100486.28;4887655;29;20345;-71
2022/11/09 11:04:30;;;;;;;23.73;10.80;;;;;;;10.26;100.00;100491.47;4885844;29;20727;-71
2022/11/09 11:07:19;;;;;;;20.83;10.03;;;;;;;10.33;100.00;100476.56;4889777;29;20335;-69
2022/11/09 11:10:17;;;;;;;13.03;8.03;;;;;;;10.35;100.00;100478.22;4889248;29;20203;-71
2022/11/09 11:13:23;;;;;;;13.57;8.87;;;;;;;10.42;100.00;100477.16;4889482;29;20247;-71
2022/11/09 11:16:35;;;;;;;14.13;8.60;;;;;;;10.44;100.00;100476.28;4884995;29;20218;-71
2022/11/09 11:19:34;;;;;;;11.17;7.60;;;;;;;10.47;100.00;100466.63;4867996;29;20506;-71
2022/11/09 11:22:22;;;;;;;12.30;7.93;;;;;;;10.51;100.00;100465.63;4888248;29;20275;-70
2022/11/09 11:25:18;;;;;;;12.70;7.67;;;;;;;10.53;100.00;100455.16;4884695;29;20251;-71
2022/11/09 11:28:11;;;;;;;10.90;6.83;;;;;;;10.51;100.00;100456.97;4891497;29;20592;-71
2022/11/09 11:30:56;;;;;;;11.50;7.43;;;;;;;10.55;100.00;100455.97;4886251;29;20224;-71
2022/11/09 11:33:42;;;;;;;12.27;7.53;;;;;;;10.61;100.00;100458.41;4889183;29;20353;-70